Time;durP1;ratioP1;P1;durP2;ratioP2;P2;SDS_P1;SDS_P2;PMS_P1;PMS_P2;Temp;Humidity;BMP_temperature;BMP_pressure;BME280_temperature;BME280_humidity;BME280_pressure;Samples;Min_cycle;Max_cycle;Signal;HPM_P1;HPM_P2
2022/10/12 00:00:00;;;;;;;10.35;9.25;;;;;;;22.64;57.29;101669.94;5016920;28;20397;-86
2022/10/12 00:02:27;;;;;;;10.07;9.15;;;;;;;22.64;57.52;101672.63;5015341;28;20054;-86
2022/10/12 00:04:54;;;;;;;10.60;8.90;;;;;;;22.64;57.54;101672.63;5016923;28;20046;-86
2022/10/12 00:07:22;;;;;;;9.25;8.45;;;;;;;22.64;57.47;101674.47;5017092;28;20046;-86
2022/10/12 00:09:49;;;;;;;11.13;9.88;;;;;;;22.64;57.58;101680.72;5017315;28;20053;-85
2022/10/12 00:12:16;;;;;;;10.00;9.00;;;;;;;22.64;57.25;101678.03;5016504;28;20049;-85
2022/10/12 00:14:44;;;;;;;10.65;9.65;;;;;;;22.65;57.37;101676.22;5016392;28;20042;-87
2022/10/12 00:17:11;;;;;;;9.75;8.80;;;;;;;22.63;57.41;101673.63;4999212;28;20050;-87
2022/10/12 00:19:39;;;;;;;11.35;9.40;;;;;;;22.62;57.49;101666.53;5017135;28;20050;-87
2022/10/12 00:22:06;;;;;;;12.73;9.70;;;;;;;22.62;57.36;101669.22;5016903;28;20050;-85
2022/10/12 00:24:33;;;;;;;10.60;9.07;;;;;;;22.62;57.40;101677.31;5016392;28;20046;-85
2022/10/12 00:27:05;;;;;;;10.30;9.30;;;;;;;22.62;57.38;101671.06;5016581;28;20054;-85
2022/10/12 00:29:32;;;;;;;10.05;9.05;;;;;;;22.63;57.28;101675.47;5014607;28;20049;-86
2022/10/12 00:32:00;;;;;;;11.15;9.52;;;;;;;22.62;57.39;101668.38;5017131;28;20050;-86
2022/10/12 00:34:27;;;;;;;10.77;9.43;;;;;;;22.61;57.33;101667.53;5015042;28;20049;-86
2022/10/12 00:36:55;;;;;;;10.75;9.55;;;;;;;22.61;57.15;101661.28;5014469;28;20057;-86
2022/10/12 00:39:22;;;;;;;10.55;9.07;;;;;;;22.61;57.32;101664.81;5016734;28;20359;-86
2022/10/12 00:41:49;;;;;;;9.77;8.85;;;;;;;22.60;57.21;101663.09;5014623;28;20069;-86
2022/10/12 00:44:35;;;;;;;8.80;8.00;;;;;;;22.61;57.31;101662.13;4998480;28;20041;-86
2022/10/12 00:47:25;;;;;;;10.20;9.20;;;;;;;22.60;57.24;101663.09;5016193;28;20056;-86
2022/10/12 00:50:07;;;;;;;10.48;8.57;;;;;;;22.59;57.13;101656.00;5015894;28;20053;-86
2022/10/12 00:52:53;;;;;;;11.07;9.87;;;;;;;22.60;57.10;101664.94;5016720;28;20046;-86
2022/10/12 00:55:23;;;;;;;10.32;9.25;;;;;;;22.60;57.07;101654.16;5015299;28;20042;-86
2022/10/12 00:57:53;;;;;;;10.82;9.73;;;;;;;22.59;57.24;101655.13;5015908;28;20068;-83
2022/10/12 01:00:22;;;;;;;11.02;9.68;;;;;;;22.59;57.14;101656.00;5015088;28;20045;-83
2022/10/12 01:02:51;;;;;;;10.68;9.65;;;;;;;22.59;57.03;101657.84;5015907;28;20504;-86
2022/10/12 01:05:20;;;;;;;10.35;9.35;;;;;;;22.59;57.04;101660.53;5016155;28;20042;-86
2022/10/12 01:07:47;;;;;;;9.98;8.85;;;;;;;22.58;57.01;101653.44;5014496;28;20053;-85
2022/10/12 01:10:15;;;;;;;12.50;9.68;;;;;;;22.59;57.21;101656.00;5015426;28;20052;-85
2022/10/12 01:12:46;;;;;;;10.32;8.70;;;;;;;22.58;57.07;101657.00;5014369;28;20042;-87
2022/10/12 01:15:13;;;;;;;9.50;8.63;;;;;;;22.58;57.09;101651.59;5014138;28;20081;-86
2022/10/12 01:18:05;;;;;;;9.82;8.90;;;;;;;22.57;57.08;101655.28;5014306;28;20046;-86
2022/10/12 01:20:51;;;;;;;10.73;9.60;;;;;;;22.57;57.13;101649.88;5015672;28;20050;-85
2022/10/12 01:23:55;;;;;;;9.88;8.93;;;;;;;22.56;56.90;101652.69;5015844;28;20046;-85
2022/10/12 01:26:56;;;;;;;11.18;9.65;;;;;;;22.56;57.03;101650.00;5015234;28;20370;-84
2022/10/12 01:29:59;;;;;;;11.85;9.50;;;;;;;22.57;57.09;101657.97;5015450;28;20049;-85
2022/10/12 01:32:38;;;;;;;11.68;9.93;;;;;;;22.57;57.06;101657.13;5015426;28;20375;-86
2022/10/12 01:35:14;;;;;;;10.70;8.98;;;;;;;22.56;56.97;101658.09;5013765;28;20057;-86
2022/10/12 01:37:50;;;;;;;10.65;9.65;;;;;;;22.57;56.99;101654.44;5015897;28;20386;-86
2022/10/12 01:40:42;;;;;;;10.23;9.10;;;;;;;22.56;56.86;101652.69;5015800;28;20147;-86
2022/10/12 01:43:09;;;;;;;10.48;9.40;;;;;;;22.55;56.86;101659.94;5014987;28;20046;-86
2022/10/12 01:45:36;;;;;;;10.35;9.23;;;;;;;22.56;56.86;101658.09;5015675;28;20362;-85
2022/10/12 01:48:04;;;;;;;10.55;9.55;;;;;;;22.56;56.79;101661.66;5015070;28;20049;-85
2022/10/12 01:50:46;;;;;;;11.27;9.80;;;;;;;22.55;56.83;101651.00;5014694;28;20057;-85
2022/10/12 01:53:27;;;;;;;10.65;9.52;;;;;;;22.54;56.82;101652.84;5014069;28;20057;-85
2022/10/12 01:56:06;;;;;;;12.02;9.25;;;;;;;22.56;56.90;101650.00;5014569;28;20046;-84
2022/10/12 01:59:00;;;;;;;10.35;9.35;;;;;;;22.54;56.89;101650.16;5014809;28;20398;-85
2022/10/12 02:02:29;;;;;;;10.73;8.02;;;;;;;22.54;56.86;101642.06;5015131;28;20057;-84
2022/10/12 02:05:10;;;;;;;11.00;9.57;;;;;;;22.53;56.88;101637.66;4932222;29;20055;-84
2022/10/12 02:07:47;;;;;;;12.15;10.27;;;;;;;22.54;56.73;101646.59;4954800;29;20083;-84
2022/10/12 02:10:22;;;;;;;10.40;9.27;;;;;;;22.54;56.75;101649.28;4937308;29;20109;-82
2022/10/12 02:12:51;;;;;;;9.40;8.52;;;;;;;22.53;56.80;101653.00;4937178;29;20058;-83
2022/10/12 02:15:23;;;;;;;9.73;8.82;;;;;;;22.52;56.65;101646.72;4954178;29;20047;-83
2022/10/12 02:17:52;;;;;;;10.10;9.10;;;;;;;22.53;56.63;101644.91;4954488;29;20066;-83
2022/10/12 02:20:22;;;;;;;10.40;9.10;;;;;;;22.53;56.79;101642.19;4954290;28;20082;-83
2022/10/12 02:22:50;;;;;;;12.90;9.57;;;;;;;22.52;56.58;101641.31;4957638;29;20074;-85
2022/10/12 02:25:21;;;;;;;10.52;9.45;;;;;;;22.51;56.66;101642.31;4958981;29;20062;-85
2022/10/12 02:27:54;;;;;;;11.93;10.02;;;;;;;22.53;56.67;101644.91;4959009;29;20510;-85
2022/10/12 02:30:25;;;;;;;10.18;9.13;;;;;;;22.52;56.73;101638.63;4942837;29;20055;-86
2022/10/12 02:33:12;;;;;;;11.13;9.55;;;;;;;22.51;56.64;101630.66;4957357;29;20511;-85
2022/10/12 02:35:46;;;;;;;10.73;9.65;;;;;;;22.51;56.75;101639.59;4958519;29;20054;-85
2022/10/12 02:38:42;;;;;;;9.50;8.43;;;;;;;22.51;56.61;101633.38;4979116;28;20065;-84
2022/10/12 02:41:22;;;;;;;11.38;9.45;;;;;;;22.51;56.71;101630.66;5018540;28;20046;-87
2022/10/12 02:44:19;;;;;;;11.15;10.05;;;;;;;22.50;56.66;101629.81;5017037;28;20064;-85
2022/10/12 02:46:49;;;;;;;10.50;9.50;;;;;;;22.51;56.62;101633.38;5017364;28;20067;-82
2022/10/12 02:49:17;;;;;;;10.27;9.38;;;;;;;22.50;56.52;101632.50;5017401;28;20061;-83
2022/10/12 02:51:46;;;;;;;10.68;9.05;;;;;;;22.50;56.52;101639.75;5017543;28;20049;-84
2022/10/12 02:54:14;;;;;;;12.07;9.02;;;;;;;22.49;56.64;101630.81;5017626;28;20504;-84
2022/10/12 02:56:44;;;;;;;9.40;8.05;;;;;;;22.50;56.73;101634.34;5015798;28;20050;-82
2022/10/12 02:59:14;;;;;;;9.77;8.77;;;;;;;22.50;56.62;101632.50;5017032;28;20524;-83
2022/10/12 03:01:41;;;;;;;10.65;9.55;;;;;;;22.49;56.73;101638.91;5017062;28;20046;-82
2022/10/12 03:04:09;;;;;;;11.82;9.68;;;;;;;22.49;56.67;101641.59;5017283;28;20042;-84
2022/10/12 03:06:36;;;;;;;9.57;8.68;;;;;;;22.49;56.73;101644.31;5017803;28;20038;-84
2022/10/12 03:09:04;;;;;;;10.73;9.05;;;;;;;22.50;56.83;101637.06;5017945;28;20493;-85
2022/10/12 03:11:31;;;;;;;10.60;9.50;;;;;;;22.49;56.74;101632.66;5017941;28;20393;-79
2022/10/12 03:13:58;;;;;;;10.50;9.50;;;;;;;22.48;56.51;101637.16;5017343;28;20052;-83
2022/10/12 03:16:26;;;;;;;10.40;8.95;;;;;;;22.49;56.53;101629.97;5017353;28;20489;-83
2022/10/12 03:18:53;;;;;;;10.40;9.50;;;;;;;22.48;56.63;101628.22;5017369;28;20045;-83
2022/10/12 03:21:21;;;;;;;11.63;8.75;;;;;;;22.48;56.75;101634.47;5016415;28;20052;-84
2022/10/12 03:23:48;;;;;;;9.95;8.95;;;;;;;22.48;56.53;101637.16;5015602;28;20517;-83
2022/10/12 03:26:15;;;;;;;11.60;9.43;;;;;;;22.48;56.78;101642.56;5016646;28;20041;-83
2022/10/12 03:28:43;;;;;;;9.70;8.70;;;;;;;22.48;56.89;101641.72;5015759;28;20056;-83
2022/10/12 03:31:10;;;;;;;9.90;8.88;;;;;;;22.48;56.66;101642.56;5016589;28;20053;-84
2022/10/12 03:33:37;;;;;;;12.05;9.68;;;;;;;22.48;56.57;101630.91;5014896;28;20046;-84
2022/10/12 03:36:05;;;;;;;10.90;9.75;;;;;;;22.48;56.49;101637.16;5016523;28;20486;-84
2022/10/12 03:38:32;;;;;;;12.05;9.68;;;;;;;22.48;56.53;101634.47;5017286;28;20069;-82
2022/10/12 03:41:00;;;;;;;11.52;9.23;;;;;;;22.47;56.46;101638.16;5015323;28;20054;-83
2022/10/12 03:43:33;;;;;;;10.60;9.50;;;;;;;22.46;56.32;101642.72;5016496;28;20045;-82
2022/10/12 03:46:01;;;;;;;11.55;9.93;;;;;;;22.47;56.36;101643.56;5016216;28;20046;-82
2022/10/12 03:48:28;;;;;;;11.65;9.93;;;;;;;22.46;56.27;101639.16;5015145;28;20054;-82
2022/10/12 03:50:55;;;;;;;11.90;9.95;;;;;;;22.46;56.45;101647.25;5016077;28;20046;-82
2022/10/12 03:53:23;;;;;;;11.63;10.38;;;;;;;22.46;56.29;101641.88;5014503;28;20057;-81
2022/10/12 03:55:50;;;;;;;11.38;10.13;;;;;;;22.45;56.21;101637.47;5016244;28;20042;-82
2022/10/12 03:58:17;;;;;;;10.40;9.40;;;;;;;22.44;56.23;101647.41;5015788;28;20061;-82
2022/10/12 04:00:45;;;;;;;12.80;9.68;;;;;;;22.44;56.17;101641.13;5015086;28;20053;-82
2022/10/12 04:03:12;;;;;;;9.88;8.52;;;;;;;22.44;56.39;101643.81;5016443;28;20046;-82
2022/10/12 04:05:40;;;;;;;11.40;10.15;;;;;;;22.45;56.30;101648.25;5016189;28;20045;-81
2022/10/12 04:08:08;;;;;;;11.45;8.88;;;;;;;22.44;56.39;101650.09;5016427;28;20405;-85
2022/10/12 04:10:35;;;;;;;10.88;9.65;;;;;;;22.44;56.17;101651.91;5014254;28;20381;-88
2022/10/12 04:13:03;;;;;;;14.90;9.95;;;;;;;22.43;56.43;101644.81;5015732;28;20402;-81
2022/10/12 04:15:30;;;;;;;10.20;9.20;;;;;;;22.43;56.45;101647.50;5015876;28;20060;-81
2022/10/12 04:17:57;;;;;;;12.35;9.55;;;;;;;22.43;56.30;101648.38;5015724;28;20053;-77
2022/10/12 04:20:24;;;;;;;9.35;8.43;;;;;;;22.43;56.45;101650.22;5014620;28;20057;-82
2022/10/12 04:22:52;;;;;;;10.35;9.13;;;;;;;22.43;56.55;101648.38;5015530;28;20498;-82
2022/10/12 04:25:19;;;;;;;9.57;8.57;;;;;;;22.43;56.50;101644.81;5014091;28;20061;-82
2022/10/12 04:27:46;;;;;;;14.18;9.10;;;;;;;22.44;56.58;101651.91;5015897;28;20042;-81
2022/10/12 04:30:14;;;;;;;10.57;9.32;;;;;;;22.42;56.62;101645.81;5013795;28;20528;-81
2022/10/12 04:32:41;;;;;;;10.32;9.05;;;;;;;22.43;56.54;101655.59;5015451;28;20045;-81
2022/10/12 04:35:09;;;;;;;11.15;10.02;;;;;;;22.43;56.49;101647.50;5015591;28;20050;-83
2022/10/12 04:37:36;;;;;;;19.77;8.77;;;;;;;22.42;56.43;101656.59;5013837;28;20061;-78
2022/10/12 04:40:04;;;;;;;9.95;9.00;;;;;;;22.42;56.74;101664.69;5015127;28;20045;-82
2022/10/12 04:42:31;;;;;;;10.82;9.00;;;;;;;22.43;56.54;101661.84;5015134;28;20052;-81
2022/10/12 04:44:58;;;;;;;12.75;10.63;;;;;;;22.42;56.50;101665.56;5015267;28;20069;-82
2022/10/12 04:47:26;;;;;;;10.10;9.10;;;;;;;22.44;56.51;101665.41;5015418;28;20041;-82
2022/10/12 04:49:53;;;;;;;10.13;9.02;;;;;;;22.42;56.31;101668.25;5015521;28;20046;-85
2022/10/12 04:52:20;;;;;;;11.60;9.07;;;;;;;22.42;56.31;101667.41;5014174;28;20057;-87
2022/10/12 04:54:48;;;;;;;9.48;8.45;;;;;;;22.42;56.46;101662.00;5015268;28;20053;-84
2022/10/12 04:57:15;;;;;;;10.20;9.07;;;;;;;22.41;56.35;101666.53;5013953;28;20050;-86
2022/10/12 04:59:43;;;;;;;11.07;9.95;;;;;;;22.41;56.31;101665.69;5014479;28;20073;-87
2022/10/12 05:02:10;;;;;;;9.95;9.00;;;;;;;22.41;56.54;101654.91;5015855;28;20049;-86
2022/10/12 05:04:37;;;;;;;9.10;8.20;;;;;;;22.41;56.48;101663.00;5015888;28;20052;-86
2022/10/12 05:07:05;;;;;;;10.20;9.13;;;;;;;22.41;56.31;101663.00;5014629;28;20042;-87
2022/10/12 05:09:32;;;;;;;13.98;9.18;;;;;;;22.40;56.24;101655.88;5014199;28;20408;-86
2022/10/12 05:11:59;;;;;;;11.13;10.02;;;;;;;22.40;56.22;101661.25;5014391;28;20416;-85
2022/10/12 05:14:27;;;;;;;13.63;9.32;;;;;;;22.40;56.18;101663.97;5013949;28;20061;-87
2022/10/12 05:16:59;;;;;;;11.60;9.77;;;;;;;22.40;56.24;101663.97;5014707;28;20042;-87
2022/10/12 05:19:27;;;;;;;13.60;9.45;;;;;;;22.40;56.26;101672.94;5016793;28;20050;-88
2022/10/12 05:21:54;;;;;;;10.82;9.63;;;;;;;22.40;56.07;101669.34;5014612;28;20050;-88
2022/10/12 05:24:21;;;;;;;10.13;8.90;;;;;;;22.38;56.25;101669.50;5016358;28;20061;-88
2022/10/12 05:26:49;;;;;;;14.15;9.95;;;;;;;22.38;56.18;101665.94;5015690;28;20034;-88
2022/10/12 05:29:16;;;;;;;10.80;9.63;;;;;;;22.38;56.16;101671.34;5015518;28;20049;-88
2022/10/12 05:31:43;;;;;;;11.35;10.25;;;;;;;22.38;56.22;101668.66;5015521;28;20061;-87
2022/10/12 05:34:11;;;;;;;10.50;9.27;;;;;;;22.38;56.07;101674.03;5016305;28;20053;-87
2022/10/12 05:36:38;;;;;;;11.48;9.68;;;;;;;22.37;56.17;101675.03;5015723;28;20045;-88
2022/10/12 05:39:06;;;;;;;10.38;9.25;;;;;;;22.37;56.04;101678.59;5014601;28;20046;-88
2022/10/12 05:41:33;;;;;;;10.68;9.57;;;;;;;22.37;56.00;101699.31;5014909;28;20054;-87
2022/10/12 05:44:00;;;;;;;13.73;9.18;;;;;;;22.35;56.02;101696.72;5015268;28;20401;-87
2022/10/12 05:46:27;;;;;;;11.85;9.25;;;;;;;22.36;56.01;101689.50;5015579;28;20049;-86
2022/10/12 05:48:55;;;;;;;11.63;10.13;;;;;;;22.37;56.01;101691.22;5015814;28;20073;-88
2022/10/12 05:51:22;;;;;;;10.55;9.55;;;;;;;22.35;56.04;101699.44;5014855;28;20069;-87
2022/10/12 05:53:55;;;;;;;11.18;10.00;;;;;;;22.36;55.98;101705.69;5015222;28;20045;-87
2022/10/12 05:56:22;;;;;;;12.40;10.00;;;;;;;22.35;56.05;101703.97;5014781;28;20045;-85
2022/10/12 05:58:50;;;;;;;11.35;10.25;;;;;;;22.35;56.01;101701.28;5013628;28;20080;-85
2022/10/12 06:01:17;;;;;;;12.20;9.38;;;;;;;22.35;55.98;101706.66;5012959;28;20054;-85
2022/10/12 06:03:44;;;;;;;10.80;9.68;;;;;;;22.34;56.05;101695.03;5012844;28;20052;-87
2022/10/12 06:06:11;;;;;;;10.43;9.43;;;;;;;22.35;55.83;101698.56;5015538;28;20060;-87
2022/10/12 06:08:39;;;;;;;10.70;9.68;;;;;;;22.34;55.93;101711.22;5014349;28;20488;-85
2022/10/12 06:11:06;;;;;;;11.93;10.40;;;;;;;22.34;55.89;101710.38;5014783;28;20046;-85
2022/10/12 06:13:33;;;;;;;10.90;9.80;;;;;;;22.34;55.90;101713.06;5014386;28;20045;-85
2022/10/12 06:16:01;;;;;;;11.18;9.68;;;;;;;22.32;55.86;101705.09;5014347;28;20049;-82
2022/10/12 06:18:28;;;;;;;12.05;10.88;;;;;;;22.34;56.03;101713.06;5013736;28;20052;-84
2022/10/12 06:20:56;;;;;;;10.65;9.50;;;;;;;22.32;56.01;101707.81;5014441;28;20053;-82
2022/10/12 06:23:43;;;;;;;10.20;9.20;;;;;;;22.32;56.14;101713.19;5014116;28;20050;-84
2022/10/12 06:26:10;;;;;;;10.55;9.57;;;;;;;22.33;56.02;101708.66;5013926;28;20052;-85
2022/10/12 06:28:37;;;;;;;11.95;9.48;;;;;;;22.34;55.92;101704.97;5012640;28;20054;-83
2022/10/12 06:31:05;;;;;;;16.75;9.85;;;;;;;22.32;55.91;101713.19;5011995;28;20058;-83
2022/10/12 06:33:32;;;;;;;11.20;9.65;;;;;;;22.33;55.97;101709.50;5013758;28;20057;-83
2022/10/12 06:36:00;;;;;;;11.40;9.20;;;;;;;22.33;55.93;101711.34;5014099;28;20046;-84
2022/10/12 06:38:27;;;;;;;14.50;10.30;;;;;;;22.33;56.03;101720.31;5013383;28;20038;-82
2022/10/12 06:40:54;;;;;;;16.58;9.68;;;;;;;22.34;56.10;101715.75;5012042;28;20050;-86
2022/10/12 06:43:23;;;;;;;10.07;8.82;;;;;;;22.33;56.31;101720.31;5011832;28;20058;-79
2022/10/12 06:45:50;;;;;;;10.88;8.57;;;;;;;22.32;56.31;101717.72;5013730;28;20380;-80
2022/10/12 06:48:17;;;;;;;11.65;8.90;;;;;;;22.34;56.21;101726.53;5014252;28;20042;-78
2022/10/12 06:50:45;;;;;;;10.05;8.98;;;;;;;22.33;56.51;101720.31;5013363;28;20050;-82
2022/10/12 06:53:13;;;;;;;16.35;11.48;;;;;;;22.34;56.04;101724.69;5012194;28;20069;-79
2022/10/12 06:55:40;;;;;;;14.00;11.52;;;;;;;22.34;55.41;101727.41;5011621;28;20057;-80
2022/10/12 06:58:07;;;;;;;13.93;10.43;;;;;;;22.34;55.98;101726.53;5012990;28;20050;-80
2022/10/12 07:00:36;;;;;;;11.30;9.73;;;;;;;22.34;56.02;101724.69;5011945;28;20057;-80
2022/10/12 07:03:03;;;;;;;12.35;10.25;;;;;;;22.34;56.13;101724.69;5011713;28;20062;-80
2022/10/12 07:05:31;;;;;;;11.68;9.93;;;;;;;22.34;55.99;101718.47;5011497;28;20046;-80
2022/10/12 07:07:58;;;;;;;12.10;10.65;;;;;;;22.34;55.99;101727.41;5015922;28;20054;-76
2022/10/12 07:10:25;;;;;;;18.65;15.43;;;;;;;22.32;54.43;101726.69;5016223;28;20481;-79
2022/10/12 07:12:53;;;;;;;19.88;17.50;;;;;;;22.28;53.93;101724.34;5016943;28;20049;-79
2022/10/12 07:15:20;;;;;;;20.52;16.83;;;;;;;22.25;53.92;101730.88;5016765;28;20118;-78
2022/10/12 07:17:47;;;;;;;17.52;15.43;;;;;;;22.23;54.44;101723.91;5016919;28;20044;-77
2022/10/12 07:20:15;;;;;;;17.20;15.27;;;;;;;22.20;54.31;101731.28;5016584;28;20485;-78
2022/10/12 07:22:43;;;;;;;19.83;15.25;;;;;;;22.20;54.42;101736.66;5016680;28;20057;-78
2022/10/12 07:25:10;;;;;;;19.88;17.10;;;;;;;22.18;53.96;101729.69;5015898;28;20057;-77
2022/10/12 07:27:38;;;;;;;18.92;15.43;;;;;;;22.16;54.17;101745.13;5016973;28;20366;-78
2022/10/12 07:30:06;;;;;;;19.40;15.88;;;;;;;22.16;54.22;101747.81;5014882;28;20057;-78
2022/10/12 07:32:34;;;;;;;21.48;16.65;;;;;;;22.14;54.15;101739.88;5016835;28;20061;-78
2022/10/12 07:35:01;;;;;;;18.13;15.85;;;;;;;22.15;54.19;101755.06;5015796;28;20410;-78
2022/10/12 07:37:28;;;;;;;19.20;16.92;;;;;;;22.14;54.09;101753.34;5016330;28;20053;-77
2022/10/12 07:39:56;;;;;;;18.98;16.98;;;;;;;22.13;54.27;101751.66;5016592;28;20042;-78
2022/10/12 07:42:24;;;;;;;19.77;17.67;;;;;;;22.13;54.09;101748.09;5016529;28;20054;-78
2022/10/12 07:44:51;;;;;;;18.85;16.88;;;;;;;22.12;54.17;101749.03;5015535;28;20050;-78
2022/10/12 07:47:19;;;;;;;19.60;17.27;;;;;;;22.11;54.20;101750.88;5018391;28;20045;-78
2022/10/12 07:49:46;;;;;;;21.05;17.25;;;;;;;22.10;54.10;101746.47;5035865;28;20052;-78
2022/10/12 07:52:13;;;;;;;17.80;14.77;;;;;;;22.12;54.44;101746.31;5036044;28;20042;-79
2022/10/12 07:54:40;;;;;;;16.45;14.40;;;;;;;22.13;54.53;101740.00;5036064;28;20053;-78
2022/10/12 07:57:08;;;;;;;17.95;14.32;;;;;;;22.16;54.66;101745.13;5035436;28;20046;-79
2022/10/12 07:59:35;;;;;;;14.38;12.88;;;;;;;22.15;54.97;101744.25;5033793;28;20057;-78
2022/10/12 08:02:03;;;;;;;14.93;12.50;;;;;;;22.16;55.02;101745.13;5036222;28;20045;-79
2022/10/12 08:04:30;;;;;;;13.65;12.23;;;;;;;22.17;55.10;101753.09;5033942;28;20053;-78
2022/10/12 08:06:58;;;;;;;13.38;11.95;;;;;;;22.18;55.09;101748.56;5035920;28;20057;-79
2022/10/12 08:09:25;;;;;;;16.20;11.45;;;;;;;22.19;55.27;101751.13;5035495;28;20052;-79
2022/10/12 08:11:54;;;;;;;12.40;11.30;;;;;;;22.20;55.35;101752.84;5034221;28;20400;-79
2022/10/12 08:14:22;;;;;;;12.40;11.20;;;;;;;22.21;55.37;101749.16;5034223;28;20049;-78
2022/10/12 08:16:49;;;;;;;13.52;11.60;;;;;;;22.21;55.35;101751.88;5035496;28;20050;-79
2022/10/12 08:19:16;;;;;;;14.98;11.85;;;;;;;22.23;55.42;101746.31;5033395;28;20037;-78
2022/10/12 08:21:44;;;;;;;12.98;11.60;;;;;;;22.23;55.58;101738.22;5035496;28;20045;-79
2022/10/12 08:24:12;;;;;;;13.65;10.75;;;;;;;22.25;55.47;101744.38;5035250;28;20061;-76
2022/10/12 08:26:39;;;;;;;13.63;11.10;;;;;;;22.25;55.73;101741.69;5035178;28;20404;-78
2022/10/12 08:29:07;;;;;;;11.95;10.00;;;;;;;22.26;55.71;101745.22;5035029;28;20049;-79
2022/10/12 08:31:35;;;;;;;21.48;12.68;;;;;;;22.27;55.61;101746.94;5035464;28;20057;-80
2022/10/12 08:34:03;;;;;;;12.77;11.00;;;;;;;22.27;55.71;101746.94;5035002;28;20049;-79
2022/10/12 08:36:30;;;;;;;14.15;10.70;;;;;;;22.28;55.50;101744.13;5033915;28;20045;-78
2022/10/12 08:38:58;;;;;;;16.75;11.93;;;;;;;22.29;55.53;101750.38;5033885;28;20131;-79
2022/10/12 08:41:50;;;;;;;15.70;10.80;;;;;;;22.29;55.43;101743.13;5033751;28;20049;-77
2022/10/12 08:44:42;;;;;;;12.05;10.68;;;;;;;22.29;55.70;101737.72;5034699;28;20041;-79
2022/10/12 08:47:12;;;;;;;11.50;10.30;;;;;;;22.29;55.74;101742.28;5034646;28;20053;-79
2022/10/12 08:49:42;;;;;;;13.02;10.85;;;;;;;22.31;55.72;101735.75;5034777;28;20042;-78
2022/10/12 08:52:36;;;;;;;13.15;10.05;;;;;;;22.30;55.55;101736.75;5034873;28;20488;-79
2022/10/12 08:55:17;;;;;;;13.38;9.73;;;;;;;22.32;55.84;101739.28;5033107;28;20050;-79
2022/10/12 08:57:44;;;;;;;11.23;9.02;;;;;;;22.33;55.74;101739.19;5034788;28;20117;-79
2022/10/12 09:00:16;;;;;;;10.93;9.82;;;;;;;22.34;56.04;101740.03;5035007;28;20049;-78
2022/10/12 09:03:02;;;;;;;14.85;10.07;;;;;;;22.32;55.92;101732.09;5034827;28;20046;-78
2022/10/12 09:05:36;;;;;;;11.90;9.70;;;;;;;22.33;55.75;101739.19;5034863;28;20049;-78
2022/10/12 09:08:13;;;;;;;10.52;9.43;;;;;;;22.34;55.88;101738.19;5032939;28;20520;-78
2022/10/12 09:10:48;;;;;;;10.73;8.43;;;;;;;22.35;55.93;101730.94;5034497;28;20076;-78
2022/10/12 09:13:24;;;;;;;13.20;9.45;;;;;;;22.36;55.95;101738.06;5032491;28;20057;-78
2022/10/12 09:16:03;;;;;;;11.27;9.25;;;;;;;22.35;55.94;101734.50;5032677;28;20054;-79
2022/10/12 09:18:38;;;;;;;10.48;9.35;;;;;;;22.35;55.84;101730.94;5033234;28;20052;-78
2022/10/12 09:21:14;;;;;;;12.35;9.73;;;;;;;22.36;56.08;101727.25;5034092;28;20053;-78
2022/10/12 09:23:43;;;;;;;11.88;10.68;;;;;;;22.37;55.78;101731.69;5032287;28;20500;-79
2022/10/12 09:26:21;;;;;;;13.40;11.50;;;;;;;22.36;55.54;101732.66;5034612;28;20108;-78
2022/10/12 09:28:56;;;;;;;12.40;9.68;;;;;;;22.37;55.48;101729.00;5033190;28;20064;-77
2022/10/12 09:31:30;;;;;;;11.98;10.13;;;;;;;22.35;55.46;101729.09;5033040;28;20042;-78
2022/10/12 09:33:59;;;;;;;15.35;12.27;;;;;;;22.35;55.11;101723.72;5034246;28;20408;-77
2022/10/12 09:36:38;;;;;;;16.70;13.90;;;;;;;22.34;54.96;101716.59;5034091;28;20511;-77
2022/10/12 09:39:18;;;;;;;16.67;14.00;;;;;;;22.35;54.34;101715.63;5033696;28;20050;-79
2022/10/12 09:41:47;;;;;;;18.42;14.00;;;;;;;22.33;54.28;101717.59;5034048;28;20053;-78
2022/10/12 09:44:28;;;;;;;18.17;14.40;;;;;;;22.34;54.29;101715.75;5034289;28;20056;-76
2022/10/12 09:46:58;;;;;;;13.07;10.60;;;;;;;22.34;54.77;101724.69;5034017;28;20049;-77
2022/10/12 09:49:56;;;;;;;13.70;11.60;;;;;;;22.34;54.79;101715.75;5032116;28;20064;-77
2022/10/12 09:52:38;;;;;;;16.05;12.50;;;;;;;22.34;54.52;101726.53;5031595;28;20076;-77
2022/10/12 09:55:11;;;;;;;15.98;13.90;;;;;;;22.34;54.33;101723.84;5034352;28;20045;-77
2022/10/12 09:57:50;;;;;;;18.35;13.45;;;;;;;22.34;54.39;101722.00;5033875;28;20420;-80
2022/10/12 10:00:24;;;;;;;14.43;12.93;;;;;;;22.35;54.63;101725.56;5033595;28;20053;-77
2022/10/12 10:02:52;;;;;;;12.63;10.35;;;;;;;22.34;54.94;101730.09;5033612;28;20057;-77
2022/10/12 10:05:27;;;;;;;13.32;10.73;;;;;;;22.34;55.20;101730.09;5032864;28;20052;-77
2022/10/12 10:08:12;;;;;;;14.95;11.10;;;;;;;22.35;54.91;101722.84;5033834;28;20048;-77
2022/10/12 10:10:58;;;;;;;15.13;10.93;;;;;;;22.34;54.98;101724.69;5033986;28;20042;-78
2022/10/12 10:13:28;;;;;;;12.27;9.68;;;;;;;22.35;55.09;101728.25;5033679;28;20042;-77
2022/10/12 10:16:09;;;;;;;11.30;9.25;;;;;;;22.33;55.25;101725.69;5033432;28;20041;-77
2022/10/12 10:18:43;;;;;;;14.57;11.88;;;;;;;22.33;54.77;101714.91;5033453;28;20053;-77
2022/10/12 10:21:13;;;;;;;12.85;11.52;;;;;;;22.33;54.63;101720.31;5033195;28;20116;-77
2022/10/12 10:23:55;;;;;;;16.60;12.07;;;;;;;22.33;54.71;101714.91;5033817;28;20409;-77
2022/10/12 10:26:24;;;;;;;14.63;11.77;;;;;;;22.34;54.85;101721.16;5033420;28;20056;-77
2022/10/12 10:29:14;;;;;;;14.40;11.00;;;;;;;22.34;54.96;101727.41;5031200;28;20064;-78
2022/10/12 10:31:44;;;;;;;16.65;12.50;;;;;;;22.33;54.77;101719.44;5015612;28;20054;-79
2022/10/12 10:34:15;;;;;;;12.77;11.15;;;;;;;22.33;54.88;101720.31;5033538;28;20041;-79
2022/10/12 10:36:47;;;;;;;12.43;10.50;;;;;;;22.33;55.10;101720.31;5033361;28;20061;-80
2022/10/12 10:39:25;;;;;;;12.20;10.80;;;;;;;22.33;55.18;101720.31;5032739;28;20436;-80
2022/10/12 10:41:54;;;;;;;14.02;11.07;;;;;;;22.33;55.27;101724.84;5032873;28;20298;-78
2022/10/12 10:44:29;;;;;;;13.93;12.43;;;;;;;22.33;54.92;101725.69;5035889;28;20416;-78
2022/10/12 10:47:00;;;;;;;19.48;12.50;;;;;;;22.32;55.11;101715.91;5036960;28;20412;-78
2022/10/12 10:49:38;;;;;;;14.40;12.25;;;;;;;22.32;55.14;101712.31;5037258;28;20049;-78
2022/10/12 10:52:19;;;;;;;14.77;11.55;;;;;;;22.32;55.29;101709.63;5037124;28;20046;-79
2022/10/12 10:54:48;;;;;;;15.88;12.75;;;;;;;22.32;55.26;101706.91;5037144;28;20405;-78
2022/10/12 10:57:19;;;;;;;15.80;10.13;;;;;;;22.33;55.58;101708.66;5036738;28;20045;-79
2022/10/12 10:59:55;;;;;;;16.98;12.45;;;;;;;22.33;55.61;101705.97;5030159;28;20041;-79
2022/10/12 11:02:44;;;;;;;15.02;11.45;;;;;;;22.32;55.60;101701.53;5017029;28;20046;-79
2022/10/12 11:05:43;;;;;;;17.75;11.85;;;;;;;22.33;55.54;101712.22;5008388;28;20051;-78
2022/10/12 11:08:27;;;;;;;16.52;12.68;;;;;;;22.32;55.46;101697.03;4955889;28;20055;-77
2022/10/12 11:11:01;;;;;;;14.63;12.77;;;;;;;22.32;55.66;101699.72;4939633;29;20055;-77
2022/10/12 11:13:35;;;;;;;13.60;10.65;;;;;;;22.34;55.52;101699.56;4956280;29;20059;-77
2022/10/12 11:16:30;;;;;;;15.35;12.05;;;;;;;22.32;55.67;101691.63;4940297;29;20051;-77
2022/10/12 11:19:20;;;;;;;14.15;11.00;;;;;;;22.33;55.72;101690.63;4955961;28;20055;-78
2022/10/12 11:22:09;;;;;;;14.55;10.82;;;;;;;22.34;55.80;101694.19;4956130;28;20098;-78
2022/10/12 11:24:46;;;;;;;12.77;11.00;;;;;;;22.33;55.84;101690.63;4940012;29;20086;-77
2022/10/12 11:27:20;;;;;;;13.32;9.98;;;;;;;22.34;55.63;101691.47;4939894;29;20059;-78
2022/10/12 11:29:54;;;;;;;11.30;9.13;;;;;;;22.34;55.82;101688.78;4939438;29;20055;-77
2022/10/12 11:32:40;;;;;;;10.50;9.38;;;;;;;22.34;55.56;101684.25;4941916;29;20063;-77
2022/10/12 11:35:14;;;;;;;16.45;9.68;;;;;;;22.34;55.38;101678.84;4955953;29;20055;-77